sensor_id;sensor_type;location;lat;lon;timestamp;temperature;humidity
32600;DHT22;19277;51.778;7.912;2022-07-31T00:00:50;22.90;66.00
32600;DHT22;19277;51.778;7.912;2022-07-31T00:03:15;22.90;65.70
32600;DHT22;19277;51.778;7.912;2022-07-31T00:05:41;22.90;65.90
32600;DHT22;19277;51.778;7.912;2022-07-31T00:08:06;22.90;66.10
32600;DHT22;19277;51.778;7.912;2022-07-31T00:10:32;23.00;66.30
32600;DHT22;19277;51.778;7.912;2022-07-31T00:12:58;23.00;67.40
32600;DHT22;19277;51.778;7.912;2022-07-31T00:15:23;23.10;67.70
32600;DHT22;19277;51.778;7.912;2022-07-31T00:17:49;23.40;67.60
32600;DHT22;19277;51.778;7.912;2022-07-31T00:20:16;23.60;67.20
32600;DHT22;19277;51.778;7.912;2022-07-31T00:22:43;23.80;66.80
32600;DHT22;19277;51.778;7.912;2022-07-31T00:25:10;24.10;66.60
32600;DHT22;19277;51.778;7.912;2022-07-31T00:27:37;24.20;66.30
32600;DHT22;19277;51.778;7.912;2022-07-31T00:30:04;24.40;66.00
32600;DHT22;19277;51.778;7.912;2022-07-31T00:32:30;24.50;65.80
32600;DHT22;19277;51.778;7.912;2022-07-31T00:34:55;24.70;65.90
32600;DHT22;19277;51.778;7.912;2022-07-31T00:37:21;24.80;65.80
32600;DHT22;19277;51.778;7.912;2022-07-31T00:39:47;24.90;65.80
32600;DHT22;19277;51.778;7.912;2022-07-31T00:44:42;25.10;66.00
32600;DHT22;19277;51.778;7.912;2022-07-31T00:47:07;25.10;66.00
32600;DHT22;19277;51.778;7.912;2022-07-31T00:49:33;25.20;66.00
32600;DHT22;19277;51.778;7.912;2022-07-31T00:51:59;25.30;66.10
32600;DHT22;19277;51.778;7.912;2022-07-31T00:54:24;25.30;65.90
32600;DHT22;19277;51.778;7.912;2022-07-31T00:56:50;25.30;65.90
32600;DHT22;19277;51.778;7.912;2022-07-31T00:59:16;25.40;65.90
32600;DHT22;19277;51.778;7.912;2022-07-31T01:01:41;25.40;66.10
32600;DHT22;19277;51.778;7.912;2022-07-31T01:04:07;25.40;66.60
32600;DHT22;19277;51.778;7.912;2022-07-31T01:06:33;25.50;66.20
32600;DHT22;19277;51.778;7.912;2022-07-31T01:08:58;25.50;66.20
32600;DHT22;19277;51.778;7.912;2022-07-31T01:11:43;25.50;66.20
32600;DHT22;19277;51.778;7.912;2022-07-31T01:14:11;25.60;66.10
32600;DHT22;19277;51.778;7.912;2022-07-31T01:16:41;25.60;66.10
32600;DHT22;19277;51.778;7.912;2022-07-31T01:19:29;25.60;66.00
32600;DHT22;19277;51.778;7.912;2022-07-31T01:25:22;25.70;66.00
32600;DHT22;19277;51.778;7.912;2022-07-31T01:30:53;25.70;66.20
32600;DHT22;19277;51.778;7.912;2022-07-31T01:33:23;25.70;66.40
32600;DHT22;19277;51.778;7.912;2022-07-31T01:35:54;25.70;66.40
32600;DHT22;19277;51.778;7.912;2022-07-31T01:38:29;25.70;66.60
32600;DHT22;19277;51.778;7.912;2022-07-31T01:41:00;25.70;66.60
32600;DHT22;19277;51.778;7.912;2022-07-31T01:43:36;25.70;66.90
32600;DHT22;19277;51.778;7.912;2022-07-31T01:46:04;25.70;67.10
32600;DHT22;19277;51.778;7.912;2022-07-31T01:48:34;25.80;67.60
32600;DHT22;19277;51.778;7.912;2022-07-31T01:51:01;25.70;67.70
32600;DHT22;19277;51.778;7.912;2022-07-31T01:53:28;25.80;67.70
32600;DHT22;19277;51.778;7.912;2022-07-31T01:55:59;25.80;67.90
32600;DHT22;19277;51.778;7.912;2022-07-31T01:58:25;25.80;68.10
32600;DHT22;19277;51.778;7.912;2022-07-31T02:00:54;25.80;68.10
32600;DHT22;19277;51.778;7.912;2022-07-31T02:03:24;25.80;68.20
32600;DHT22;19277;51.778;7.912;2022-07-31T02:05:50;25.90;68.40
32600;DHT22;19277;51.778;7.912;2022-07-31T02:08:18;25.90;68.50
32600;DHT22;19277;51.778;7.912;2022-07-31T02:10:44;25.90;68.60
32600;DHT22;19277;51.778;7.912;2022-07-31T02:13:12;25.80;68.50
32600;DHT22;19277;51.778;7.912;2022-07-31T02:15:40;25.90;68.60
32600;DHT22;19277;51.778;7.912;2022-07-31T02:18:09;25.90;68.70
32600;DHT22;19277;51.778;7.912;2022-07-31T02:20:36;25.90;68.90
32600;DHT22;19277;51.778;7.912;2022-07-31T02:23:02;25.90;68.90
32600;DHT22;19277;51.778;7.912;2022-07-31T02:25:28;25.90;69.00
32600;DHT22;19277;51.778;7.912;2022-07-31T02:27:55;25.90;69.00
32600;DHT22;19277;51.778;7.912;2022-07-31T02:30:28;25.90;69.10
32600;DHT22;19277;51.778;7.912;2022-07-31T02:32:55;26.00;69.10
32600;DHT22;19277;51.778;7.912;2022-07-31T02:35:21;26.00;69.10
32600;DHT22;19277;51.778;7.912;2022-07-31T02:37:49;26.00;69.40
32600;DHT22;19277;51.778;7.912;2022-07-31T02:40:16;26.00;69.20
32600;DHT22;19277;51.778;7.912;2022-07-31T02:42:45;26.00;69.30
32600;DHT22;19277;51.778;7.912;2022-07-31T02:45:11;26.00;69.20
32600;DHT22;19277;51.778;7.912;2022-07-31T02:47:37;26.00;69.30
32600;DHT22;19277;51.778;7.912;2022-07-31T02:50:04;26.00;69.30
32600;DHT22;19277;51.778;7.912;2022-07-31T02:52:30;26.00;69.40
32600;DHT22;19277;51.778;7.912;2022-07-31T02:54:57;26.00;69.40
32600;DHT22;19277;51.778;7.912;2022-07-31T02:57:22;26.00;70.00
32600;DHT22;19277;51.778;7.912;2022-07-31T02:59:48;26.00;69.40
32600;DHT22;19277;51.778;7.912;2022-07-31T03:02:14;26.00;69.40
32600;DHT22;19277;51.778;7.912;2022-07-31T03:04:39;26.00;69.40
32600;DHT22;19277;51.778;7.912;2022-07-31T03:07:05;26.00;69.30
32600;DHT22;19277;51.778;7.912;2022-07-31T03:09:31;26.00;69.30
32600;DHT22;19277;51.778;7.912;2022-07-31T03:11:57;26.00;69.30
32600;DHT22;19277;51.778;7.912;2022-07-31T03:14:24;26.00;69.30
32600;DHT22;19277;51.778;7.912;2022-07-31T03:16:51;26.00;69.30
32600;DHT22;19277;51.778;7.912;2022-07-31T03:19:19;26.10;69.60
32600;DHT22;19277;51.778;7.912;2022-07-31T03:21:46;26.00;69.50
32600;DHT22;19277;51.778;7.912;2022-07-31T03:24:12;26.10;69.70
32600;DHT22;19277;51.778;7.912;2022-07-31T03:26:38;26.10;69.90
32600;DHT22;19277;51.778;7.912;2022-07-31T03:29:04;26.10;70.10
32600;DHT22;19277;51.778;7.912;2022-07-31T03:31:29;26.10;70.10
32600;DHT22;19277;51.778;7.912;2022-07-31T03:33:55;26.10;70.10
32600;DHT22;19277;51.778;7.912;2022-07-31T03:36:21;26.10;70.10
32600;DHT22;19277;51.778;7.912;2022-07-31T03:38:46;26.10;70.10
32600;DHT22;19277;51.778;7.912;2022-07-31T03:41:12;26.10;70.10
32600;DHT22;19277;51.778;7.912;2022-07-31T03:43:39;26.10;70.00
32600;DHT22;19277;51.778;7.912;2022-07-31T03:46:05;26.10;70.00
32600;DHT22;19277;51.778;7.912;2022-07-31T03:48:32;26.10;70.00
32600;DHT22;19277;51.778;7.912;2022-07-31T03:50:57;26.10;70.00
32600;DHT22;19277;51.778;7.912;2022-07-31T03:53:24;26.10;69.90
32600;DHT22;19277;51.778;7.912;2022-07-31T03:55:50;26.10;69.90
32600;DHT22;19277;51.778;7.912;2022-07-31T03:58:18;26.10;70.10
32600;DHT22;19277;51.778;7.912;2022-07-31T04:00:44;26.10;70.20
32600;DHT22;19277;51.778;7.912;2022-07-31T04:03:11;26.10;70.30
32600;DHT22;19277;51.778;7.912;2022-07-31T04:05:40;26.10;70.50
32600;DHT22;19277;51.778;7.912;2022-07-31T04:08:07;26.10;70.60
32600;DHT22;19277;51.778;7.912;2022-07-31T04:10:33;26.20;70.80
32600;DHT22;19277;51.778;7.912;2022-07-31T04:13:04;26.20;70.90
32600;DHT22;19277;51.778;7.912;2022-07-31T04:15:30;26.20;70.90
32600;DHT22;19277;51.778;7.912;2022-07-31T04:17:56;26.20;71.00
32600;DHT22;19277;51.778;7.912;2022-07-31T04:20:22;26.20;71.00
32600;DHT22;19277;51.778;7.912;2022-07-31T04:22:48;26.20;71.00
32600;DHT22;19277;51.778;7.912;2022-07-31T04:25:14;26.20;71.20
32600;DHT22;19277;51.778;7.912;2022-07-31T04:27:40;26.20;71.10
32600;DHT22;19277;51.778;7.912;2022-07-31T04:30:07;26.20;71.10
32600;DHT22;19277;51.778;7.912;2022-07-31T04:32:36;26.20;71.20
32600;DHT22;19277;51.778;7.912;2022-07-31T04:35:03;26.20;71.20
32600;DHT22;19277;51.778;7.912;2022-07-31T04:37:29;26.20;71.20
32600;DHT22;19277;51.778;7.912;2022-07-31T04:39:54;26.20;71.80
32600;DHT22;19277;51.778;7.912;2022-07-31T04:42:20;26.20;71.20
32600;DHT22;19277;51.778;7.912;2022-07-31T04:44:46;26.20;71.20
32600;DHT22;19277;51.778;7.912;2022-07-31T04:47:11;26.30;71.60
32600;DHT22;19277;51.778;7.912;2022-07-31T04:49:38;26.30;71.70
32600;DHT22;19277;51.778;7.912;2022-07-31T04:52:04;26.30;71.50
32600;DHT22;19277;51.778;7.912;2022-07-31T04:54:30;26.20;71.40
32600;DHT22;19277;51.778;7.912;2022-07-31T04:56:55;26.30;71.40
32600;DHT22;19277;51.778;7.912;2022-07-31T04:59:22;26.20;71.30
32600;DHT22;19277;51.778;7.912;2022-07-31T05:01:49;26.20;71.40
32600;DHT22;19277;51.778;7.912;2022-07-31T05:04:15;26.30;71.50
32600;DHT22;19277;51.778;7.912;2022-07-31T05:06:43;26.30;71.60
32600;DHT22;19277;51.778;7.912;2022-07-31T05:09:11;26.30;71.80
32600;DHT22;19277;51.778;7.912;2022-07-31T05:11:40;26.30;71.90
32600;DHT22;19277;51.778;7.912;2022-07-31T05:14:07;26.30;72.00
32600;DHT22;19277;51.778;7.912;2022-07-31T05:16:34;26.30;72.10
32600;DHT22;19277;51.778;7.912;2022-07-31T05:19:00;26.30;72.20
32600;DHT22;19277;51.778;7.912;2022-07-31T05:21:26;26.30;72.20
32600;DHT22;19277;51.778;7.912;2022-07-31T05:23:52;26.30;72.30
32600;DHT22;19277;51.778;7.912;2022-07-31T05:26:18;26.30;72.40
32600;DHT22;19277;51.778;7.912;2022-07-31T05:28:45;26.30;72.50
32600;DHT22;19277;51.778;7.912;2022-07-31T05:31:12;26.30;72.60
32600;DHT22;19277;51.778;7.912;2022-07-31T05:33:37;26.30;72.70
32600;DHT22;19277;51.778;7.912;2022-07-31T05:36:03;26.30;72.60
32600;DHT22;19277;51.778;7.912;2022-07-31T05:38:29;26.30;72.70
32600;DHT22;19277;51.778;7.912;2022-07-31T05:40:55;26.30;72.90
32600;DHT22;19277;51.778;7.912;2022-07-31T05:43:20;26.30;72.90
32600;DHT22;19277;51.778;7.912;2022-07-31T05:45:46;26.30;72.90
32600;DHT22;19277;51.778;7.912;2022-07-31T05:48:13;26.30;72.90
32600;DHT22;19277;51.778;7.912;2022-07-31T05:50:42;26.30;72.90
32600;DHT22;19277;51.778;7.912;2022-07-31T05:53:08;26.40;73.00
32600;DHT22;19277;51.778;7.912;2022-07-31T05:55:37;26.40;73.00
32600;DHT22;19277;51.778;7.912;2022-07-31T05:58:04;26.40;72.90
32600;DHT22;19277;51.778;7.912;2022-07-31T06:00:30;26.40;72.80
32600;DHT22;19277;51.778;7.912;2022-07-31T06:02:55;26.40;72.80
32600;DHT22;19277;51.778;7.912;2022-07-31T06:05:21;26.40;73.20
32600;DHT22;19277;51.778;7.912;2022-07-31T06:07:47;26.40;73.20
32600;DHT22;19277;51.778;7.912;2022-07-31T06:10:15;26.40;73.10
32600;DHT22;19277;51.778;7.912;2022-07-31T06:12:40;26.40;72.90
32600;DHT22;19277;51.778;7.912;2022-07-31T06:15:06;26.40;73.00
32600;DHT22;19277;51.778;7.912;2022-07-31T06:17:32;26.40;73.00
32600;DHT22;19277;51.778;7.912;2022-07-31T06:19:58;26.40;73.00
32600;DHT22;19277;51.778;7.912;2022-07-31T06:22:24;26.50;73.10
32600;DHT22;19277;51.778;7.912;2022-07-31T06:24:49;26.50;73.00
32600;DHT22;19277;51.778;7.912;2022-07-31T06:27:15;26.50;73.00
32600;DHT22;19277;51.778;7.912;2022-07-31T06:29:41;26.50;72.90
32600;DHT22;19277;51.778;7.912;2022-07-31T06:32:07;26.50;73.00
32600;DHT22;19277;51.778;7.912;2022-07-31T06:34:33;26.50;73.10
32600;DHT22;19277;51.778;7.912;2022-07-31T06:36:59;26.50;73.10
32600;DHT22;19277;51.778;7.912;2022-07-31T06:39:24;26.50;73.20
32600;DHT22;19277;51.778;7.912;2022-07-31T06:41:50;26.50;73.20
32600;DHT22;19277;51.778;7.912;2022-07-31T06:44:18;26.50;73.20
32600;DHT22;19277;51.778;7.912;2022-07-31T06:46:47;26.50;73.20
32600;DHT22;19277;51.778;7.912;2022-07-31T06:49:13;26.50;73.70
32600;DHT22;19277;51.778;7.912;2022-07-31T06:51:39;26.50;73.20
32600;DHT22;19277;51.778;7.912;2022-07-31T06:54:07;26.50;73.30
32600;DHT22;19277;51.778;7.912;2022-07-31T06:56:34;26.60;73.40
32600;DHT22;19277;51.778;7.912;2022-07-31T06:58:59;26.50;73.40
32600;DHT22;19277;51.778;7.912;2022-07-31T07:01:25;26.50;73.50
32600;DHT22;19277;51.778;7.912;2022-07-31T07:03:51;26.60;73.70
32600;DHT22;19277;51.778;7.912;2022-07-31T07:06:17;26.60;73.70
32600;DHT22;19277;51.778;7.912;2022-07-31T07:08:43;26.60;73.80
32600;DHT22;19277;51.778;7.912;2022-07-31T07:11:09;26.60;73.70
32600;DHT22;19277;51.778;7.912;2022-07-31T07:13:35;26.60;73.60
32600;DHT22;19277;51.778;7.912;2022-07-31T07:16:00;26.60;73.50
32600;DHT22;19277;51.778;7.912;2022-07-31T07:18:26;26.60;73.50
32600;DHT22;19277;51.778;7.912;2022-07-31T07:20:51;26.60;73.30
32600;DHT22;19277;51.778;7.912;2022-07-31T07:23:18;26.60;73.40
32600;DHT22;19277;51.778;7.912;2022-07-31T07:25:43;26.60;73.50
32600;DHT22;19277;51.778;7.912;2022-07-31T07:28:09;26.60;73.50
32600;DHT22;19277;51.778;7.912;2022-07-31T07:30:35;26.60;73.40
32600;DHT22;19277;51.778;7.912;2022-07-31T07:33:01;26.60;73.40
32600;DHT22;19277;51.778;7.912;2022-07-31T07:35:27;26.60;73.40
32600;DHT22;19277;51.778;7.912;2022-07-31T07:48:27;26.70;73.20
32600;DHT22;19277;51.778;7.912;2022-07-31T07:50:52;26.60;73.10
32600;DHT22;19277;51.778;7.912;2022-07-31T07:53:18;26.70;73.20
32600;DHT22;19277;51.778;7.912;2022-07-31T07:55:44;26.70;72.90
32600;DHT22;19277;51.778;7.912;2022-07-31T07:58:09;26.70;73.20
32600;DHT22;19277;51.778;7.912;2022-07-31T08:00:35;26.70;73.10
32600;DHT22;19277;51.778;7.912;2022-07-31T08:03:00;26.70;73.10
32600;DHT22;19277;51.778;7.912;2022-07-31T08:05:26;26.70;73.20
32600;DHT22;19277;51.778;7.912;2022-07-31T08:07:51;26.70;73.40
32600;DHT22;19277;51.778;7.912;2022-07-31T08:10:19;26.70;73.50
32600;DHT22;19277;51.778;7.912;2022-07-31T08:12:45;26.70;73.50
32600;DHT22;19277;51.778;7.912;2022-07-31T08:15:11;26.70;73.50
32600;DHT22;19277;51.778;7.912;2022-07-31T08:17:37;26.70;73.40
32600;DHT22;19277;51.778;7.912;2022-07-31T08:20:03;26.70;73.50
32600;DHT22;19277;51.778;7.912;2022-07-31T08:22:29;26.70;73.50
32600;DHT22;19277;51.778;7.912;2022-07-31T08:24:55;26.80;73.50
32600;DHT22;19277;51.778;7.912;2022-07-31T08:27:21;26.80;73.40
32600;DHT22;19277;51.778;7.912;2022-07-31T08:30:00;26.80;73.30
32600;DHT22;19277;51.778;7.912;2022-07-31T08:32:26;26.80;73.30
32600;DHT22;19277;51.778;7.912;2022-07-31T08:34:53;26.80;73.30
32600;DHT22;19277;51.778;7.912;2022-07-31T08:37:18;26.80;73.20
32600;DHT22;19277;51.778;7.912;2022-07-31T08:39:45;26.80;73.30
32600;DHT22;19277;51.778;7.912;2022-07-31T08:42:12;26.80;73.20
32600;DHT22;19277;51.778;7.912;2022-07-31T08:44:39;26.80;73.10
32600;DHT22;19277;51.778;7.912;2022-07-31T08:47:06;26.90;73.10
32600;DHT22;19277;51.778;7.912;2022-07-31T08:49:38;26.90;73.10
32600;DHT22;19277;51.778;7.912;2022-07-31T08:52:07;26.90;73.10
32600;DHT22;19277;51.778;7.912;2022-07-31T08:54:34;26.90;73.10
32600;DHT22;19277;51.778;7.912;2022-07-31T08:57:00;26.90;73.10
32600;DHT22;19277;51.778;7.912;2022-07-31T08:59:25;26.90;73.00
32600;DHT22;19277;51.778;7.912;2022-07-31T09:01:51;26.90;73.00
32600;DHT22;19277;51.778;7.912;2022-07-31T09:04:24;26.90;72.80
32600;DHT22;19277;51.778;7.912;2022-07-31T09:06:50;26.90;72.80
32600;DHT22;19277;51.778;7.912;2022-07-31T09:09:16;26.80;72.50
32600;DHT22;19277;51.778;7.912;2022-07-31T09:11:46;26.80;72.30
32600;DHT22;19277;51.778;7.912;2022-07-31T09:14:12;26.90;72.40
32600;DHT22;19277;51.778;7.912;2022-07-31T09:16:48;26.90;72.30
32600;DHT22;19277;51.778;7.912;2022-07-31T09:19:15;26.80;72.00
32600;DHT22;19277;51.778;7.912;2022-07-31T09:21:44;26.80;70.40
32600;DHT22;19277;51.778;7.912;2022-07-31T09:24:12;26.80;70.40
32600;DHT22;19277;51.778;7.912;2022-07-31T09:26:38;26.70;70.70
32600;DHT22;19277;51.778;7.912;2022-07-31T09:29:07;26.80;71.50
32600;DHT22;19277;51.778;7.912;2022-07-31T09:31:36;26.70;70.90
32600;DHT22;19277;51.778;7.912;2022-07-31T09:34:03;26.70;70.90
32600;DHT22;19277;51.778;7.912;2022-07-31T09:36:29;26.70;70.90
32600;DHT22;19277;51.778;7.912;2022-07-31T09:38:55;26.70;70.90
32600;DHT22;19277;51.778;7.912;2022-07-31T09:41:21;26.70;71.00
32600;DHT22;19277;51.778;7.912;2022-07-31T09:43:54;26.60;71.10
32600;DHT22;19277;51.778;7.912;2022-07-31T09:46:20;26.70;71.00
32600;DHT22;19277;51.778;7.912;2022-07-31T09:48:51;26.60;70.90
32600;DHT22;19277;51.778;7.912;2022-07-31T09:51:17;26.60;70.90
32600;DHT22;19277;51.778;7.912;2022-07-31T09:53:44;26.60;71.60
32600;DHT22;19277;51.778;7.912;2022-07-31T09:56:13;26.60;70.90
32600;DHT22;19277;51.778;7.912;2022-07-31T09:58:41;26.60;70.80
32600;DHT22;19277;51.778;7.912;2022-07-31T10:01:11;26.60;70.80
32600;DHT22;19277;51.778;7.912;2022-07-31T10:03:38;26.60;70.90
32600;DHT22;19277;51.778;7.912;2022-07-31T10:06:05;26.60;70.80
32600;DHT22;19277;51.778;7.912;2022-07-31T10:08:36;26.60;70.80
32600;DHT22;19277;51.778;7.912;2022-07-31T10:11:03;26.60;70.80
32600;DHT22;19277;51.778;7.912;2022-07-31T10:13:30;26.60;70.80
32600;DHT22;19277;51.778;7.912;2022-07-31T10:15:59;26.60;70.80
32600;DHT22;19277;51.778;7.912;2022-07-31T10:18:27;26.60;70.80
32600;DHT22;19277;51.778;7.912;2022-07-31T10:20:55;26.60;70.70
32600;DHT22;19277;51.778;7.912;2022-07-31T10:23:22;26.60;70.70
32600;DHT22;19277;51.778;7.912;2022-07-31T10:25:57;26.60;70.60
32600;DHT22;19277;51.778;7.912;2022-07-31T10:28:24;26.60;70.60
32600;DHT22;19277;51.778;7.912;2022-07-31T10:30:50;26.60;70.50
32600;DHT22;19277;51.778;7.912;2022-07-31T10:33:17;26.60;70.50
32600;DHT22;19277;51.778;7.912;2022-07-31T10:36:05;26.70;71.10
32600;DHT22;19277;51.778;7.912;2022-07-31T10:38:39;26.70;70.60
32600;DHT22;19277;51.778;7.912;2022-07-31T10:41:13;26.70;71.10
32600;DHT22;19277;51.778;7.912;2022-07-31T10:43:50;26.60;70.50
32600;DHT22;19277;51.778;7.912;2022-07-31T10:46:32;26.70;70.50
32600;DHT22;19277;51.778;7.912;2022-07-31T10:48:58;26.70;70.60
32600;DHT22;19277;51.778;7.912;2022-07-31T10:51:24;26.70;70.50
32600;DHT22;19277;51.778;7.912;2022-07-31T10:53:59;26.60;70.40
32600;DHT22;19277;51.778;7.912;2022-07-31T10:56:27;26.70;70.40
32600;DHT22;19277;51.778;7.912;2022-07-31T10:58:54;26.70;70.40
32600;DHT22;19277;51.778;7.912;2022-07-31T11:01:20;26.70;70.30
32600;DHT22;19277;51.778;7.912;2022-07-31T11:03:51;26.70;70.30
32600;DHT22;19277;51.778;7.912;2022-07-31T11:06:17;26.70;70.30
32600;DHT22;19277;51.778;7.912;2022-07-31T11:08:48;26.70;70.30
32600;DHT22;19277;51.778;7.912;2022-07-31T11:11:16;26.70;70.30
32600;DHT22;19277;51.778;7.912;2022-07-31T11:13:50;26.70;70.30
32600;DHT22;19277;51.778;7.912;2022-07-31T11:16:17;26.70;70.20
32600;DHT22;19277;51.778;7.912;2022-07-31T11:18:43;26.70;70.20
32600;DHT22;19277;51.778;7.912;2022-07-31T11:21:11;26.70;70.20
32600;DHT22;19277;51.778;7.912;2022-07-31T11:23:37;26.70;70.20
32600;DHT22;19277;51.778;7.912;2022-07-31T11:26:05;26.70;70.20
32600;DHT22;19277;51.778;7.912;2022-07-31T11:28:32;26.70;70.10
32600;DHT22;19277;51.778;7.912;2022-07-31T11:31:01;26.70;70.10
32600;DHT22;19277;51.778;7.912;2022-07-31T11:33:43;26.60;70.10
32600;DHT22;19277;51.778;7.912;2022-07-31T11:36:11;26.70;70.10
32600;DHT22;19277;51.778;7.912;2022-07-31T11:38:39;26.70;70.10
32600;DHT22;19277;51.778;7.912;2022-07-31T11:41:07;26.70;70.10
32600;DHT22;19277;51.778;7.912;2022-07-31T11:43:33;26.70;70.00
32600;DHT22;19277;51.778;7.912;2022-07-31T11:46:00;26.70;70.00
32600;DHT22;19277;51.778;7.912;2022-07-31T11:48:26;26.70;70.00
32600;DHT22;19277;51.778;7.912;2022-07-31T11:50:56;26.70;70.00
32600;DHT22;19277;51.778;7.912;2022-07-31T11:53:21;26.70;69.90
32600;DHT22;19277;51.778;7.912;2022-07-31T11:55:53;26.70;69.90
32600;DHT22;19277;51.778;7.912;2022-07-31T11:58:21;26.70;69.90
32600;DHT22;19277;51.778;7.912;2022-07-31T12:00:53;26.70;69.90
32600;DHT22;19277;51.778;7.912;2022-07-31T12:03:22;26.70;69.80
32600;DHT22;19277;51.778;7.912;2022-07-31T12:05:50;26.80;69.90
32600;DHT22;19277;51.778;7.912;2022-07-31T12:08:16;26.70;69.80
32600;DHT22;19277;51.778;7.912;2022-07-31T12:10:43;26.80;69.90
32600;DHT22;19277;51.778;7.912;2022-07-31T12:13:11;26.80;69.90
32600;DHT22;19277;51.778;7.912;2022-07-31T12:15:37;26.80;69.80
32600;DHT22;19277;51.778;7.912;2022-07-31T12:18:04;26.80;69.80
32600;DHT22;19277;51.778;7.912;2022-07-31T12:20:31;26.80;69.80
32600;DHT22;19277;51.778;7.912;2022-07-31T12:22:57;26.80;69.80
32600;DHT22;19277;51.778;7.912;2022-07-31T12:25:24;26.80;69.80
32600;DHT22;19277;51.778;7.912;2022-07-31T12:27:53;26.80;69.80
32600;DHT22;19277;51.778;7.912;2022-07-31T12:30:20;26.80;69.80
32600;DHT22;19277;51.778;7.912;2022-07-31T12:32:49;26.80;69.70
32600;DHT22;19277;51.778;7.912;2022-07-31T12:35:14;26.80;69.70
32600;DHT22;19277;51.778;7.912;2022-07-31T12:37:47;26.80;69.70
32600;DHT22;19277;51.778;7.912;2022-07-31T12:40:25;26.80;69.70
32600;DHT22;19277;51.778;7.912;2022-07-31T12:42:51;26.80;69.60
32600;DHT22;19277;51.778;7.912;2022-07-31T12:45:45;26.80;69.70
32600;DHT22;19277;51.778;7.912;2022-07-31T12:48:10;26.80;69.60
32600;DHT22;19277;51.778;7.912;2022-07-31T12:50:36;26.80;69.60
32600;DHT22;19277;51.778;7.912;2022-07-31T12:53:03;26.80;69.60
32600;DHT22;19277;51.778;7.912;2022-07-31T12:55:30;26.80;69.60
32600;DHT22;19277;51.778;7.912;2022-07-31T12:57:57;26.80;69.60
32600;DHT22;19277;51.778;7.912;2022-07-31T13:00:25;26.80;69.60
32600;DHT22;19277;51.778;7.912;2022-07-31T13:02:55;26.80;69.60
32600;DHT22;19277;51.778;7.912;2022-07-31T13:05:21;26.80;69.60
32600;DHT22;19277;51.778;7.912;2022-07-31T13:07:47;26.80;69.60
32600;DHT22;19277;51.778;7.912;2022-07-31T13:10:13;26.80;69.60
32600;DHT22;19277;51.778;7.912;2022-07-31T13:12:39;26.80;69.60
32600;DHT22;19277;51.778;7.912;2022-07-31T13:15:05;26.80;69.60
32600;DHT22;19277;51.778;7.912;2022-07-31T13:17:31;26.80;69.60
32600;DHT22;19277;51.778;7.912;2022-07-31T13:19:56;26.80;69.60
32600;DHT22;19277;51.778;7.912;2022-07-31T13:22:22;26.80;69.60
32600;DHT22;19277;51.778;7.912;2022-07-31T13:24:48;26.80;69.60
32600;DHT22;19277;51.778;7.912;2022-07-31T13:27:13;26.80;69.60
32600;DHT22;19277;51.778;7.912;2022-07-31T13:29:39;26.80;69.60
32600;DHT22;19277;51.778;7.912;2022-07-31T13:32:05;26.80;69.50
32600;DHT22;19277;51.778;7.912;2022-07-31T13:34:31;26.80;69.60
32600;DHT22;19277;51.778;7.912;2022-07-31T13:36:56;26.80;69.60
32600;DHT22;19277;51.778;7.912;2022-07-31T13:39:22;26.80;69.50
32600;DHT22;19277;51.778;7.912;2022-07-31T13:41:47;26.80;69.50
32600;DHT22;19277;51.778;7.912;2022-07-31T13:44:13;26.80;69.50
32600;DHT22;19277;51.778;7.912;2022-07-31T13:46:38;26.80;69.50
32600;DHT22;19277;51.778;7.912;2022-07-31T13:49:04;26.80;69.50
32600;DHT22;19277;51.778;7.912;2022-07-31T13:51:33;26.80;69.50
32600;DHT22;19277;51.778;7.912;2022-07-31T13:53:59;26.80;69.50
32600;DHT22;19277;51.778;7.912;2022-07-31T13:56:25;26.80;69.50
32600;DHT22;19277;51.778;7.912;2022-07-31T13:58:50;26.90;69.50
32600;DHT22;19277;51.778;7.912;2022-07-31T14:01:18;26.80;69.40
32600;DHT22;19277;51.778;7.912;2022-07-31T14:03:43;26.90;69.50
32600;DHT22;19277;51.778;7.912;2022-07-31T14:06:09;26.80;69.50
32600;DHT22;19277;51.778;7.912;2022-07-31T14:08:35;26.80;69.50
32600;DHT22;19277;51.778;7.912;2022-07-31T14:11:00;26.80;69.40
32600;DHT22;19277;51.778;7.912;2022-07-31T14:13:26;26.80;69.50
32600;DHT22;19277;51.778;7.912;2022-07-31T14:15:53;26.90;69.50
32600;DHT22;19277;51.778;7.912;2022-07-31T14:18:19;26.80;69.40
32600;DHT22;19277;51.778;7.912;2022-07-31T14:20:45;26.80;69.40
32600;DHT22;19277;51.778;7.912;2022-07-31T14:23:11;26.80;69.40
32600;DHT22;19277;51.778;7.912;2022-07-31T14:25:37;26.80;69.40
32600;DHT22;19277;51.778;7.912;2022-07-31T14:28:04;26.80;69.40
32600;DHT22;19277;51.778;7.912;2022-07-31T14:30:30;26.90;69.50
32600;DHT22;19277;51.778;7.912;2022-07-31T14:32:56;26.80;69.40
32600;DHT22;19277;51.778;7.912;2022-07-31T14:35:22;26.90;69.50
32600;DHT22;19277;51.778;7.912;2022-07-31T14:37:48;26.90;69.50
32600;DHT22;19277;51.778;7.912;2022-07-31T14:40:14;26.90;69.50
32600;DHT22;19277;51.778;7.912;2022-07-31T14:42:40;26.80;69.40
32600;DHT22;19277;51.778;7.912;2022-07-31T14:45:06;26.90;69.50
32600;DHT22;19277;51.778;7.912;2022-07-31T14:47:33;26.90;69.40
32600;DHT22;19277;51.778;7.912;2022-07-31T14:49:59;26.90;69.40
32600;DHT22;19277;51.778;7.912;2022-07-31T14:52:25;26.90;69.40
32600;DHT22;19277;51.778;7.912;2022-07-31T14:54:50;26.90;69.40
32600;DHT22;19277;51.778;7.912;2022-07-31T14:57:16;26.90;69.40
32600;DHT22;19277;51.778;7.912;2022-07-31T14:59:41;26.90;69.40
32600;DHT22;19277;51.778;7.912;2022-07-31T15:02:07;26.90;69.30
32600;DHT22;19277;51.778;7.912;2022-07-31T15:04:33;26.90;69.30
32600;DHT22;19277;51.778;7.912;2022-07-31T15:06:59;26.90;69.30
32600;DHT22;19277;51.778;7.912;2022-07-31T15:09:25;26.90;69.30
32600;DHT22;19277;51.778;7.912;2022-07-31T15:11:50;26.90;69.30
32600;DHT22;19277;51.778;7.912;2022-07-31T15:14:16;26.90;69.30
32600;DHT22;19277;51.778;7.912;2022-07-31T15:16:42;26.90;69.30
32600;DHT22;19277;51.778;7.912;2022-07-31T15:19:08;26.90;69.30
32600;DHT22;19277;51.778;7.912;2022-07-31T15:21:34;26.90;69.30
32600;DHT22;19277;51.778;7.912;2022-07-31T15:24:00;26.90;69.30
32600;DHT22;19277;51.778;7.912;2022-07-31T15:26:25;26.90;69.30
32600;DHT22;19277;51.778;7.912;2022-07-31T15:28:51;26.90;69.30
32600;DHT22;19277;51.778;7.912;2022-07-31T15:31:16;26.90;69.20
32600;DHT22;19277;51.778;7.912;2022-07-31T15:33:42;26.90;69.20
32600;DHT22;19277;51.778;7.912;2022-07-31T15:36:07;26.90;69.30
32600;DHT22;19277;51.778;7.912;2022-07-31T15:38:33;26.90;69.20
32600;DHT22;19277;51.778;7.912;2022-07-31T15:41:01;26.90;69.20
32600;DHT22;19277;51.778;7.912;2022-07-31T15:43:26;26.90;69.20
32600;DHT22;19277;51.778;7.912;2022-07-31T15:45:52;26.90;69.30
32600;DHT22;19277;51.778;7.912;2022-07-31T15:48:18;26.90;69.20